Latest Weather Observations for Coondewanna

IDW60801

Issued at 9:35 am WST Wednesday 23 July 2014 (issued every 30 minutes, with the page automatically refreshed every 10 minutes)

About weather observations | Map of weather stations | Latest weather observations for WA | Other Formats
Station Details ID: 505051 Name: COONDEWANNA Lat: -22.96 Lon: 118.81 Height: 697.63 m
Data from the previous 72 hours. | See also: Recent months for locations in Western Australia
Date/Time
WST
Temp
°C
App
Temp
°C
Dew
Point
Rel
Hum
%
Delta-T
°C
Wind Press
QNH
hPa
Press
MSL
hPa
Rain
since 9 am
mm
Dir
 
Spd
km/h
Gust
km/h
Spd
kts
Gust
kts
23/09:30am 12.7 8.1 1.7 47 4.9 SE 15 22 8 12 1022.3 - 0.0
23/09:00am 12.0 7.4 1.6 49 4.6 SSE 15 22 8 12 1022.4 1021.0 0.0
23/08:30am 11.2 5.6 1.5 51 4.3 SE 20 26 11 14 1022.2 - 0.0
23/08:00am 10.3 7.0 2.4 58 3.5 E 9 15 5 8 1022.1 1020.7 0.0
23/07:30am 7.2 4.5 2.7 73 2.0 SSE 6 7 3 4 1021.9 - 0.0
23/07:00am 4.7 2.3 2.1 83 1.1 SSE 4 7 2 4 1021.7 1020.3 0.0
23/06:30am 5.3 2.4 1.6 77 1.5 SSE 6 7 3 4 1021.4 - 0.0
23/06:00am 8.1 4.4 2.6 68 2.4 SSE 11 13 6 7 1021.0 1019.6 0.0
23/05:30am 8.9 4.2 2.9 66 2.7 SSE 17 20 9 11 1020.7 - 0.0
23/05:00am 8.5 4.7 3.8 72 2.1 SSE 13 17 7 9 1020.5 1019.1 0.0
23/04:30am 4.6 1.2 1.8 82 1.2 S 9 11 5 6 1020.5 - 0.0
23/04:00am 5.3 3.6 2.0 79 1.4 CALM 0 0 0 0 1020.6 1019.2 0.0
23/03:30am 6.2 3.2 2.1 75 1.7 S 7 7 4 4 1020.3 - 0.0
23/03:00am 8.4 4.3 2.2 65 2.7 S 13 17 7 9 1020.2 1018.7 0.0
23/02:30am 9.0 5.3 2.1 62 3.0 SSE 11 13 6 7 1020.1 - 0.0
23/02:00am 10.1 6.7 2.0 57 3.6 S 9 13 5 7 1020.5 1019.1 0.0
23/01:30am 10.9 7.6 2.2 55 3.9 SE 9 13 5 7 1020.6 - 0.0
23/01:00am 9.4 5.8 2.7 63 3.0 S 11 15 6 8 1020.7 1019.3 0.0
23/12:30am 9.4 5.4 2.7 63 3.0 S 13 15 7 8 1020.8 - 0.0
23/12:00am 10.2 7.3 2.8 60 3.3 S 7 9 4 5 1020.9 1019.5 0.0
 
Date/Time
WST
Temp
°C
App
Temp
°C
Dew
Point
Rel
Hum
%
Delta-T
°C
Wind Press
QNH
hPa
Press
MSL
hPa
Rain
since 9 am
mm
Dir
 
Spd
km/h
Gust
km/h
Spd
kts
Gust
kts
22/11:30pm 11.4 8.3 3.7 59 3.6 ESE 9 11 5 6 1021.0 - 0.0
22/11:00pm 11.1 8.0 3.6 60 3.4 S 9 13 5 7 1021.0 1019.6 0.0
22/10:30pm 10.6 8.0 4.1 64 3.0 S 7 9 4 5 1021.1 - 0.0
22/10:00pm 10.1 8.9 4.7 69 2.5 CALM 0 0 0 0 1020.9 1019.5 0.0
22/09:30pm 10.6 9.0 4.5 66 2.9 SSW 2 7 1 4 1020.6 - 0.0
22/09:00pm 12.2 9.6 4.2 58 3.8 SSW 7 9 4 5 1020.5 1019.1 0.0
22/08:30pm 11.8 9.5 4.8 62 3.3 SSW 6 9 3 5 1020.4 - 0.0
22/08:00pm 12.2 10.5 4.2 58 3.8 SSW 2 6 1 3 1020.3 1018.8 0.0
22/07:30pm 12.9 10.2 3.8 54 4.3 SSW 7 11 4 6 1019.9 - 0.0
22/07:00pm 13.9 11.2 3.7 50 4.8 SSW 7 11 4 6 1019.5 1018.1 0.0
22/06:30pm 15.4 11.7 2.6 42 6.0 SSW 11 13 6 7 1019.1 - 0.0
22/06:00pm 16.6 12.1 1.9 37 6.8 SW 15 20 8 11 1018.8 1017.3 0.0
22/05:30pm 17.9 11.5 1.0 32 7.8 SW 24 30 13 16 1018.5 - 0.0
22/05:00pm 18.7 12.7 0.8 30 8.2 SW 22 32 12 17 1018.0 1016.6 0.0
22/04:30pm 19.4 13.7 0.4 28 8.7 SSW 20 30 11 16 1018.0 - 0.0
22/04:00pm 20.0 14.4 1.4 29 8.8 SSW 20 30 11 16 1017.8 1016.3 0.0
22/03:30pm 20.3 14.7 1.2 28 9.0 SW 20 30 11 16 1017.7 - 0.0
22/03:00pm 20.1 14.4 2.9 32 8.3 WSW 22 33 12 18 1017.7 1016.2 0.0
22/02:30pm 19.6 14.3 1.6 30 8.5 SW 19 30 10 16 1017.7 - 0.0
22/02:00pm 19.6 14.2 1.1 29 8.6 SSW 19 28 10 15 1017.7 1016.2 0.0
22/01:30pm 19.1 13.6 1.6 31 8.2 WSW 20 28 11 15 1017.8 - 0.0
22/01:00pm 19.0 13.7 3.2 35 7.7 WSW 20 32 11 17 1018.3 1016.8 0.0
22/12:30pm 18.4 13.4 3.5 37 7.2 SW 19 22 10 12 1018.7 - 0.0
22/12:00pm 18.2 13.0 3.3 37 7.2 WSW 20 28 11 15 1019.1 1017.7 0.0
22/11:30am 17.9 13.4 4.1 40 6.8 SSW 17 28 9 15 1019.5 - 0.0
22/11:00am 16.9 12.8 4.6 44 6.0 SSW 15 20 8 11 1019.9 1018.4 0.0
22/10:30am 16.4 11.8 5.4 48 5.5 SSW 19 24 10 13 1020.2 - 0.0
22/10:00am 16.0 10.4 5.3 49 5.3 SSW 24 30 13 16 1020.5 1019.1 0.0
22/09:30am 14.8 11.7 5.6 54 4.5 SSW 11 17 6 9 1020.8 - 0.0
22/09:00am 13.5 10.1 5.7 59 3.8 WSW 13 17 7 9 1020.7 1019.3 2.0
22/08:30am 12.8 9.2 5.2 60 3.7 WSW 13 17 7 9 1020.5 - 2.0
22/08:00am 11.3 8.6 5.6 68 2.7 SW 9 11 5 6 1020.4 1019.0 2.0
22/07:30am 10.2 8.1 5.6 73 2.2 SW 6 7 3 4 1020.2 - 2.0
22/07:00am 9.0 7.3 6.1 82 1.4 SW 4 7 2 4 1019.9 1018.4 2.0
22/06:30am 9.6 7.3 5.8 77 1.8 SW 7 9 4 5 1019.6 - 2.0
22/06:00am 10.7 7.7 5.9 72 2.3 WSW 11 19 6 10 1019.1 1017.7 2.0
22/05:30am 11.4 8.9 6.7 73 2.3 WSW 9 13 5 7 1018.9 - 2.0
22/05:00am 11.5 8.1 7.8 78 1.9 W 15 20 8 11 1018.6 1017.1 2.0
22/04:40am 11.9 9.6 9.1 83 1.5 W 11 17 6 9 1018.4 - 2.0
22/04:30am 12.3 9.5 10.0 86 1.2 W 15 20 8 11 1018.3 - 2.0
22/04:00am 13.4 12.6 12.9 97 0.3 WNW 9 13 5 7 1018.0 1016.6 2.0
22/03:57am 13.5 12.7 13.0 97 0.3 WNW 9 13 5 7 1018.0 - 2.0
22/03:56am 13.5 12.7 13.0 97 0.3 WNW 9 13 5 7 1017.9 - 2.0
22/03:49am 13.4 13.0 12.9 97 0.3 NW 7 13 4 7 1017.9 - 2.0
22/03:30am 13.1 12.6 12.6 97 0.3 N 7 9 4 5 1017.8 - 2.0
22/03:00am 13.6 13.8 13.1 97 0.3 N 4 7 2 4 1017.6 1016.1 2.0
22/02:30am 13.8 14.8 13.3 97 0.3 CALM 0 0 0 0 1017.6 - 2.0
22/02:00am 14.1 14.1 13.6 97 0.3 N 6 9 3 5 1017.4 1015.9 2.0
22/01:30am 14.5 14.4 13.9 96 0.3 N 7 11 4 6 1017.6 - 2.0
22/01:23am 14.5 14.0 13.9 96 0.3 N 9 11 5 6 1017.6 - 2.0
22/01:00am 14.6 14.7 13.8 95 0.5 ENE 6 9 3 5 1017.7 1016.2 2.0
22/12:30am 14.5 15.7 13.7 95 0.5 CALM 0 0 0 0 1017.7 - 2.0
22/12:00am 14.5 14.5 13.7 95 0.5 ENE 6 6 3 3 1017.8 1016.3 2.0
 
Date/Time
WST
Temp
°C
App
Temp
°C
Dew
Point
Rel
Hum
%
Delta-T
°C
Wind Press
QNH
hPa
Press
MSL
hPa
Rain
since 9 am
mm
Dir
 
Spd
km/h
Gust
km/h
Spd
kts
Gust
kts
21/11:30pm 14.6 14.5 13.8 95 0.5 E 7 9 4 5 1017.8 - 2.0
21/11:00pm 14.6 14.1 13.8 95 0.5 E 9 11 5 6 1018.0 1016.6 2.0
21/10:30pm 15.1 15.3 14.3 95 0.5 SW 6 7 3 4 1018.3 - 2.0
21/10:00pm 14.8 16.1 14.0 95 0.5 CALM 0 4 0 2 1018.5 1017.0 2.0
21/09:30pm 15.0 16.2 13.9 93 0.6 CALM 0 0 0 0 1018.3 - 2.0
21/09:00pm 15.1 16.0 14.1 94 0.6 SW 2 7 1 4 1018.1 1016.7 2.0
21/08:30pm 15.1 16.4 14.1 94 0.6 CALM 0 0 0 0 1018.3 - 2.0
21/08:00pm 14.9 14.4 13.9 94 0.6 W 9 13 5 7 1018.1 1016.7 2.0
21/07:30pm 14.9 16.1 13.8 93 0.6 CALM 0 4 0 2 1018.0 - 2.0
21/07:00pm 15.0 15.1 13.9 93 0.6 N 6 7 3 4 1017.9 1016.5 2.0
21/06:30pm 15.0 16.2 13.9 93 0.6 CALM 0 0 0 0 1017.6 - 2.0
21/06:00pm 14.9 15.3 13.8 93 0.6 N 4 6 2 3 1017.4 1015.9 1.8
21/05:30pm 15.0 15.1 13.9 93 0.6 N 6 7 3 4 1017.4 - 1.8
21/05:00pm 15.1 15.0 13.8 92 0.8 N 7 11 4 6 1017.2 1015.7 1.8
21/04:39pm 15.2 15.4 14.1 93 0.6 NNE 6 9 3 5 1017.3 - 1.8
21/04:30pm 15.2 15.4 14.1 93 0.6 NNE 6 7 3 4 1017.3 - 1.8
21/04:00pm 15.4 15.5 13.8 90 0.9 NNE 6 7 3 4 1017.2 1015.7 0.8
21/03:53pm 15.6 15.6 13.6 88 1.2 NE 6 9 3 5 1017.2 - 0.6
21/03:30pm 15.7 15.2 12.8 83 1.7 ESE 7 9 4 5 1017.0 - 0.0
21/03:00pm 15.6 15.3 12.7 83 1.7 E 6 9 3 5 1017.0 1015.5 0.0
21/02:30pm 15.6 15.0 12.2 80 1.9 N 7 9 4 5 1017.3 - 0.0
21/02:00pm 15.5 14.0 11.9 79 2.0 N 11 15 6 8 1017.6 1016.1 0.0
21/01:52pm 15.6 14.1 12.0 79 2.0 N 11 15 6 8 1017.7 - 0.0
21/01:30pm 15.9 14.2 9.8 67 3.3 NE 9 11 5 6 1017.6 - 0.0
21/01:08pm 16.2 14.3 9.2 63 3.7 ENE 9 15 5 8 1018.0 - 0.0
21/01:00pm 16.2 14.3 7.4 56 4.5 E 7 9 4 5 1018.1 1016.7 0.0
21/12:30pm 15.8 12.8 7.8 59 4.2 ENE 13 19 7 10 1018.6 - 0.0
21/12:00pm 15.1 10.9 7.4 60 3.9 ENE 19 26 10 14 1019.0 1017.5 0.0
21/11:42am 16.0 11.2 5.6 50 5.2 ENE 20 28 11 15 1019.2 - 0.0
21/11:30am 16.2 10.4 4.3 45 5.8 ENE 24 32 13 17 1019.3 - 0.0
21/11:12am 16.5 11.0 3.9 43 6.1 E 22 28 12 15 1019.8 - 0.0
21/11:00am 16.8 11.7 4.2 43 6.1 ENE 20 32 11 17 1020.1 1018.6 0.0
21/10:30am 16.1 11.1 3.5 43 6.0 ENE 19 24 10 13 1020.5 - 0.0
21/10:00am 15.8 11.0 2.6 41 6.2 ENE 17 22 9 12 1020.7 1019.3 0.0
21/09:49am 15.6 10.8 2.4 41 6.1 ENE 17 22 9 12 1020.7 - 0.0
21/09:36am 15.6 11.1 2.4 41 6.1 ENE 15 20 8 11 1020.8 - 0.0
21/09:30am 15.5 11.5 2.7 42 6.0 ENE 13 17 7 9 1020.8 - 0.0
21/09:00am 13.7 12.4 5.8 59 3.9 NNE 2 6 1 3 1020.8 1019.4 0.0
21/08:30am 10.6 9.6 5.8 72 2.3 CALM 0 6 0 3 1020.5 - 0.0
21/08:29am 10.5 9.5 5.7 72 2.3 CALM 0 6 0 3 1020.5 - 0.0
21/08:00am 9.2 8.1 5.2 76 1.9 CALM 0 0 0 0 1020.5 1019.1 0.0
21/07:30am 7.8 6.6 4.7 81 1.4 CALM 0 4 0 2 1020.3 - 0.0
21/07:00am 7.0 5.8 4.8 86 1.0 CALM 0 0 0 0 1020.1 1018.6 0.0
21/06:30am 6.1 3.7 4.4 89 0.8 NNE 6 7 3 4 1019.9 - 0.0
21/06:00am 5.4 3.2 3.6 88 0.8 NNE 4 7 2 4 1019.5 1018.1 0.0
21/05:30am 5.0 3.6 3.3 89 0.7 CALM 0 0 0 0 1019.4 - 0.0
21/05:00am 5.4 4.0 3.4 87 0.9 CALM 0 0 0 0 1019.3 1017.9 0.0
21/04:30am 5.5 4.1 3.5 87 0.9 CALM 0 0 0 0 1019.4 - 0.0
21/04:00am 5.9 4.5 3.7 86 1.0 CALM 0 6 0 3 1019.2 1017.8 0.0
21/03:30am 5.8 4.4 3.5 85 1.0 CALM 0 0 0 0 1019.3 - 0.0
21/03:00am 6.4 4.7 3.9 84 1.1 NNE 2 7 1 4 1019.4 1018.0 0.0
21/02:30am 6.3 4.9 3.8 84 1.1 CALM 0 0 0 0 1019.4 - 0.0
21/02:00am 6.3 4.9 3.6 83 1.2 CALM 0 0 0 0 1019.5 1018.1 0.0
21/01:30am 6.4 4.2 3.6 82 1.2 NNE 4 6 2 3 1019.6 - 0.0
21/01:00am 6.6 4.8 3.4 80 1.4 NNE 2 7 1 4 1019.5 1018.1 0.0
21/12:30am 8.9 5.9 3.9 71 2.3 NNE 9 11 5 6 1019.6 - 0.0
21/12:00am 8.1 6.4 4.1 76 1.8 NNE 2 17 1 9 1019.8 1018.3 0.0
 
Date/Time
WST
Temp
°C
App
Temp
°C
Dew
Point
Rel
Hum
%
Delta-T
°C
Wind Press
QNH
hPa
Press
MSL
hPa
Rain
since 9 am
mm
Dir
 
Spd
km/h
Gust
km/h
Spd
kts
Gust
kts
20/11:30pm 7.9 6.5 3.8 75 1.8 CALM 0 0 0 0 1019.6 - 0.0
20/11:00pm 8.4 7.0 3.7 72 2.1 CALM 0 0 0 0 1020.0 1018.5 0.0
20/10:30pm 8.9 7.5 3.7 70 2.4 CALM 0 0 0 0 1020.1 - 0.0
20/10:00pm 9.8 8.4 3.3 64 2.9 CALM 0 4 0 2 1020.4 1019.0 0.0
20/09:30pm 11.5 8.4 3.8 59 3.6 ESE 9 11 5 6 1020.5 - 0.0
20/09:00pm 10.8 8.2 4.0 63 3.1 ENE 7 11 4 6 1020.7 1019.3 0.0
20/08:30pm 11.6 9.1 3.6 58 3.7 ENE 6 7 3 4 1020.5 - 0.0
20/08:00pm 13.4 10.8 4.0 53 4.4 SSW 7 11 4 6 1020.3 1018.8 0.0
20/07:30pm 13.2 12.1 4.9 57 4.0 CALM 0 0 0 0 1020.1 - 0.0
20/07:00pm 13.3 10.9 4.5 55 4.2 SSW 6 7 3 4 1020.0 1018.5 0.0
20/06:30pm 15.3 12.9 4.1 47 5.4 SSW 6 7 3 4 1019.3 - 0.0
20/06:00pm 18.0 15.0 1.9 34 7.5 SW 7 9 4 5 1018.9 1017.4 0.0
20/05:30pm 20.5 18.0 1.4 28 9.0 WSW 4 9 2 5 1018.4 - 0.0
20/05:00pm 21.3 17.7 0.5 25 9.7 SSW 9 11 5 6 1018.3 1016.8 0.0
20/04:30pm 21.6 18.8 -0.4 23 10.1 W 4 7 2 4 1018.0 - 0.0
20/04:00pm 22.2 18.5 0.1 23 10.3 W 9 17 5 9 1018.0 1016.6 0.0
20/03:30pm 21.6 17.9 0.2 24 10.0 WNW 9 15 5 8 1017.9 - 0.0
20/03:00pm 21.5 17.2 1.2 26 9.6 SW 13 20 7 11 1018.0 1016.6 0.0
20/02:30pm 21.2 17.8 2.0 28 9.2 W 9 15 5 8 1017.9 - 0.0
20/02:00pm 20.4 16.8 2.7 31 8.6 SSE 11 17 6 9 1018.0 1016.6 0.0
20/01:30pm 19.7 16.3 2.1 31 8.4 S 9 15 5 8 1018.4 - 0.0
20/01:00pm 19.9 17.1 2.3 31 8.4 N 6 9 3 5 1018.7 1017.2 0.0
20/12:30pm 19.3 15.2 2.2 32 8.2 WSW 13 19 7 10 1019.1 - 0.0
20/12:00pm 18.8 14.8 2.6 34 7.7 W 13 17 7 9 1019.6 1018.2 0.0
20/11:30am 18.1 13.6 -0.2 29 8.2 SSW 13 20 7 11 1020.0 - 0.0
20/11:00am 17.1 14.2 4.8 44 6.1 SW 9 17 5 9 1020.3 1018.8 0.0
20/10:30am 16.5 13.3 5.2 47 5.6 SSW 11 19 6 10 1020.7 - 0.0
20/10:00am 15.2 12.3 4.9 50 5.0 SSW 9 17 5 9 1021.3 1019.8 0.0

Other Formats:

Comma delimited format used in spreadsheet applications
http://www.bom.gov.au/fwo/IDW60801/IDW60801.99312.axf

JavaScript Object Notation format (JSON) in row-major order
http://www.bom.gov.au/fwo/IDW60801/IDW60801.99312.json